sensor_id;sensor_type;location;lat;lon;timestamp;temperature;humidity
44843;DHT22;31884;52.538;13.820;2023-11-22T00:00:08;-0.80;99.90
44843;DHT22;31884;52.538;13.820;2023-11-22T00:02:33;-0.80;99.90
44843;DHT22;31884;52.538;13.820;2023-11-22T00:04:59;-0.80;99.90
44843;DHT22;31884;52.538;13.820;2023-11-22T00:07:25;-0.70;99.90
44843;DHT22;31884;52.538;13.820;2023-11-22T00:09:54;-0.60;99.90
44843;DHT22;31884;52.538;13.820;2023-11-22T00:12:20;-0.60;99.90
44843;DHT22;31884;52.538;13.820;2023-11-22T00:14:45;-0.50;99.90
44843;DHT22;31884;52.538;13.820;2023-11-22T00:17:12;-0.40;99.90
44843;DHT22;31884;52.538;13.820;2023-11-22T00:19:38;-0.30;99.90
44843;DHT22;31884;52.538;13.820;2023-11-22T00:22:03;-0.30;99.90
44843;DHT22;31884;52.538;13.820;2023-11-22T00:24:37;-0.20;99.90
44843;DHT22;31884;52.538;13.820;2023-11-22T00:27:02;-0.10;99.90
44843;DHT22;31884;52.538;13.820;2023-11-22T00:29:28;0.00;99.90
44843;DHT22;31884;52.538;13.820;2023-11-22T00:31:53;0.10;99.90
44843;DHT22;31884;52.538;13.820;2023-11-22T00:34:19;0.10;99.90
44843;DHT22;31884;52.538;13.820;2023-11-22T00:36:44;0.20;99.90
44843;DHT22;31884;52.538;13.820;2023-11-22T00:39:10;0.30;99.90
44843;DHT22;31884;52.538;13.820;2023-11-22T00:41:38;0.30;99.90
44843;DHT22;31884;52.538;13.820;2023-11-22T00:44:04;0.40;99.90
44843;DHT22;31884;52.538;13.820;2023-11-22T00:46:31;0.40;99.90
44843;DHT22;31884;52.538;13.820;2023-11-22T00:48:57;0.40;99.90
44843;DHT22;31884;52.538;13.820;2023-11-22T00:51:23;0.50;99.90
44843;DHT22;31884;52.538;13.820;2023-11-22T00:53:48;0.50;99.90
44843;DHT22;31884;52.538;13.820;2023-11-22T00:56:15;0.40;99.90
44843;DHT22;31884;52.538;13.820;2023-11-22T00:58:40;0.30;99.90
44843;DHT22;31884;52.538;13.820;2023-11-22T01:01:06;0.30;99.90
44843;DHT22;31884;52.538;13.820;2023-11-22T01:03:31;0.20;99.90
44843;DHT22;31884;52.538;13.820;2023-11-22T01:05:57;0.20;99.90
44843;DHT22;31884;52.538;13.820;2023-11-22T01:08:23;0.10;99.90
44843;DHT22;31884;52.538;13.820;2023-11-22T01:10:48;0.10;99.90
44843;DHT22;31884;52.538;13.820;2023-11-22T01:13:14;0.00;99.90
44843;DHT22;31884;52.538;13.820;2023-11-22T01:15:40;0.00;99.90
44843;DHT22;31884;52.538;13.820;2023-11-22T01:18:06;0.00;99.90
44843;DHT22;31884;52.538;13.820;2023-11-22T01:20:31;-0.10;99.90
44843;DHT22;31884;52.538;13.820;2023-11-22T01:22:56;-0.10;99.90
44843;DHT22;31884;52.538;13.820;2023-11-22T01:25:22;-0.20;99.90
44843;DHT22;31884;52.538;13.820;2023-11-22T01:27:48;-0.30;99.90
44843;DHT22;31884;52.538;13.820;2023-11-22T01:30:13;-0.30;99.90
44843;DHT22;31884;52.538;13.820;2023-11-22T01:32:40;-0.40;99.90
44843;DHT22;31884;52.538;13.820;2023-11-22T01:35:05;-0.40;99.90
44843;DHT22;31884;52.538;13.820;2023-11-22T01:37:31;-0.50;99.90
44843;DHT22;31884;52.538;13.820;2023-11-22T01:39:57;-0.60;99.90
44843;DHT22;31884;52.538;13.820;2023-11-22T01:42:23;-0.60;99.90
44843;DHT22;31884;52.538;13.820;2023-11-22T01:44:50;-0.60;99.90
44843;DHT22;31884;52.538;13.820;2023-11-22T01:47:16;-0.70;99.90
44843;DHT22;31884;52.538;13.820;2023-11-22T01:49:43;-0.80;99.90
44843;DHT22;31884;52.538;13.820;2023-11-22T01:52:08;-0.80;99.90
44843;DHT22;31884;52.538;13.820;2023-11-22T01:54:34;-0.80;99.90
44843;DHT22;31884;52.538;13.820;2023-11-22T01:57:00;-0.90;99.90
44843;DHT22;31884;52.538;13.820;2023-11-22T01:59:27;-0.90;99.90
44843;DHT22;31884;52.538;13.820;2023-11-22T02:01:54;-0.90;99.60
44843;DHT22;31884;52.538;13.820;2023-11-22T02:04:20;-1.00;99.70
44843;DHT22;31884;52.538;13.820;2023-11-22T02:06:46;-1.00;99.80
44843;DHT22;31884;52.538;13.820;2023-11-22T02:09:12;-1.10;99.60
44843;DHT22;31884;52.538;13.820;2023-11-22T02:11:41;-1.10;99.30
44843;DHT22;31884;52.538;13.820;2023-11-22T02:14:14;-1.20;99.20
44843;DHT22;31884;52.538;13.820;2023-11-22T02:16:40;-1.20;99.70
44843;DHT22;31884;52.538;13.820;2023-11-22T02:19:08;-1.30;99.20
44843;DHT22;31884;52.538;13.820;2023-11-22T02:21:38;-1.30;99.50
44843;DHT22;31884;52.538;13.820;2023-11-22T02:24:04;-1.30;98.90
44843;DHT22;31884;52.538;13.820;2023-11-22T02:26:30;-1.30;99.00
44843;DHT22;31884;52.538;13.820;2023-11-22T02:28:56;-1.30;97.90
44843;DHT22;31884;52.538;13.820;2023-11-22T02:31:22;-1.30;97.10
44843;DHT22;31884;52.538;13.820;2023-11-22T02:33:48;-1.30;97.00
44843;DHT22;31884;52.538;13.820;2023-11-22T02:36:13;-1.30;96.70
44843;DHT22;31884;52.538;13.820;2023-11-22T02:38:39;-1.40;96.90
44843;DHT22;31884;52.538;13.820;2023-11-22T02:41:05;-1.40;96.60
44843;DHT22;31884;52.538;13.820;2023-11-22T02:43:31;-1.40;96.90
44843;DHT22;31884;52.538;13.820;2023-11-22T02:45:56;-1.40;96.30
44843;DHT22;31884;52.538;13.820;2023-11-22T02:48:23;-1.40;95.90
44843;DHT22;31884;52.538;13.820;2023-11-22T02:50:49;-1.50;96.30
44843;DHT22;31884;52.538;13.820;2023-11-22T02:53:14;-1.50;96.10
44843;DHT22;31884;52.538;13.820;2023-11-22T02:55:40;-1.50;96.60
44843;DHT22;31884;52.538;13.820;2023-11-22T02:58:06;-1.60;96.80
44843;DHT22;31884;52.538;13.820;2023-11-22T03:00:31;-1.60;96.80
44843;DHT22;31884;52.538;13.820;2023-11-22T03:03:00;-1.60;96.70
44843;DHT22;31884;52.538;13.820;2023-11-22T03:05:25;-1.60;96.80
44843;DHT22;31884;52.538;13.820;2023-11-22T03:07:51;-1.70;97.10
44843;DHT22;31884;52.538;13.820;2023-11-22T03:10:17;-1.80;97.50
44843;DHT22;31884;52.538;13.820;2023-11-22T03:12:43;-1.80;97.80
44843;DHT22;31884;52.538;13.820;2023-11-22T03:15:09;-1.80;98.10
44843;DHT22;31884;52.538;13.820;2023-11-22T03:17:35;-1.90;98.40
44843;DHT22;31884;52.538;13.820;2023-11-22T03:20:00;-1.90;98.60
44843;DHT22;31884;52.538;13.820;2023-11-22T03:22:27;-2.00;98.70
44843;DHT22;31884;52.538;13.820;2023-11-22T03:24:55;-2.00;99.20
44843;DHT22;31884;52.538;13.820;2023-11-22T03:27:21;-2.10;99.50
44843;DHT22;31884;52.538;13.820;2023-11-22T03:29:47;-2.10;99.90
44843;DHT22;31884;52.538;13.820;2023-11-22T03:32:13;-2.20;99.90
44843;DHT22;31884;52.538;13.820;2023-11-22T03:34:38;-2.10;99.90
44843;DHT22;31884;52.538;13.820;2023-11-22T03:37:04;-2.10;99.90
44843;DHT22;31884;52.538;13.820;2023-11-22T03:39:29;-2.10;99.90
44843;DHT22;31884;52.538;13.820;2023-11-22T03:41:55;-2.10;99.90
44843;DHT22;31884;52.538;13.820;2023-11-22T03:44:20;-2.10;99.90
44843;DHT22;31884;52.538;13.820;2023-11-22T03:46:46;-2.10;99.90
44843;DHT22;31884;52.538;13.820;2023-11-22T03:49:11;-2.10;99.90
44843;DHT22;31884;52.538;13.820;2023-11-22T03:51:38;-2.10;99.90
44843;DHT22;31884;52.538;13.820;2023-11-22T03:54:04;-2.10;99.90
44843;DHT22;31884;52.538;13.820;2023-11-22T03:56:30;-2.20;99.90
44843;DHT22;31884;52.538;13.820;2023-11-22T03:58:56;-2.20;99.90
44843;DHT22;31884;52.538;13.820;2023-11-22T04:01:21;-2.20;99.90
44843;DHT22;31884;52.538;13.820;2023-11-22T04:03:47;-2.20;99.90
44843;DHT22;31884;52.538;13.820;2023-11-22T04:06:17;-2.20;99.90
44843;DHT22;31884;52.538;13.820;2023-11-22T04:08:43;-2.20;99.90
44843;DHT22;31884;52.538;13.820;2023-11-22T04:11:09;-2.30;99.90
44843;DHT22;31884;52.538;13.820;2023-11-22T04:13:35;-2.20;99.90
44843;DHT22;31884;52.538;13.820;2023-11-22T04:16:01;-2.30;99.90
44843;DHT22;31884;52.538;13.820;2023-11-22T04:18:26;-2.30;99.90
44843;DHT22;31884;52.538;13.820;2023-11-22T04:20:52;-2.30;99.90
44843;DHT22;31884;52.538;13.820;2023-11-22T04:23:18;-2.30;99.90
44843;DHT22;31884;52.538;13.820;2023-11-22T04:25:43;-2.30;99.90
44843;DHT22;31884;52.538;13.820;2023-11-22T04:28:09;-2.40;99.90
44843;DHT22;31884;52.538;13.820;2023-11-22T04:30:35;-2.30;99.90
44843;DHT22;31884;52.538;13.820;2023-11-22T04:33:01;-2.30;99.90
44843;DHT22;31884;52.538;13.820;2023-11-22T04:35:27;-2.30;99.90
44843;DHT22;31884;52.538;13.820;2023-11-22T04:37:53;-2.30;99.90
44843;DHT22;31884;52.538;13.820;2023-11-22T04:40:20;-2.20;99.90
44843;DHT22;31884;52.538;13.820;2023-11-22T04:42:46;-2.30;99.90
44843;DHT22;31884;52.538;13.820;2023-11-22T04:45:13;-2.30;99.90
44843;DHT22;31884;52.538;13.820;2023-11-22T04:47:39;-2.40;99.90
44843;DHT22;31884;52.538;13.820;2023-11-22T04:50:05;-2.40;99.90
44843;DHT22;31884;52.538;13.820;2023-11-22T04:52:31;-2.40;99.90
44843;DHT22;31884;52.538;13.820;2023-11-22T04:54:57;-2.40;99.90
44843;DHT22;31884;52.538;13.820;2023-11-22T04:57:22;-2.50;99.90
44843;DHT22;31884;52.538;13.820;2023-11-22T04:59:48;-2.50;99.90
44843;DHT22;31884;52.538;13.820;2023-11-22T05:02:13;-2.50;99.90
44843;DHT22;31884;52.538;13.820;2023-11-22T05:04:39;-2.50;99.90
44843;DHT22;31884;52.538;13.820;2023-11-22T05:07:04;-2.50;99.90
44843;DHT22;31884;52.538;13.820;2023-11-22T05:09:30;-2.50;99.90
44843;DHT22;31884;52.538;13.820;2023-11-22T05:11:55;-2.50;99.90
44843;DHT22;31884;52.538;13.820;2023-11-22T05:14:21;-2.50;99.90
44843;DHT22;31884;52.538;13.820;2023-11-22T05:16:46;-2.50;99.90
44843;DHT22;31884;52.538;13.820;2023-11-22T05:19:12;-2.50;99.90
44843;DHT22;31884;52.538;13.820;2023-11-22T05:21:37;-2.50;99.90
44843;DHT22;31884;52.538;13.820;2023-11-22T05:24:03;-2.60;99.90
44843;DHT22;31884;52.538;13.820;2023-11-22T05:26:29;-2.70;99.90
44843;DHT22;31884;52.538;13.820;2023-11-22T05:28:54;-2.70;99.90
44843;DHT22;31884;52.538;13.820;2023-11-22T05:31:20;-2.70;99.90
44843;DHT22;31884;52.538;13.820;2023-11-22T05:33:46;-2.80;99.90
44843;DHT22;31884;52.538;13.820;2023-11-22T05:36:11;-2.90;99.90
44843;DHT22;31884;52.538;13.820;2023-11-22T05:38:37;-2.90;99.90
44843;DHT22;31884;52.538;13.820;2023-11-22T05:41:03;-2.90;99.90
44843;DHT22;31884;52.538;13.820;2023-11-22T05:43:29;-3.00;99.90
44843;DHT22;31884;52.538;13.820;2023-11-22T05:45:54;-2.90;99.90
44843;DHT22;31884;52.538;13.820;2023-11-22T05:48:20;-3.00;99.90
44843;DHT22;31884;52.538;13.820;2023-11-22T05:50:46;-3.00;99.90
44843;DHT22;31884;52.538;13.820;2023-11-22T05:53:12;-3.00;99.90
44843;DHT22;31884;52.538;13.820;2023-11-22T05:55:38;-3.00;99.90
44843;DHT22;31884;52.538;13.820;2023-11-22T05:58:04;-3.10;99.90
44843;DHT22;31884;52.538;13.820;2023-11-22T06:00:29;-3.10;99.90
44843;DHT22;31884;52.538;13.820;2023-11-22T06:02:55;-3.20;99.90
44843;DHT22;31884;52.538;13.820;2023-11-22T06:05:21;-3.20;99.90
44843;DHT22;31884;52.538;13.820;2023-11-22T06:07:47;-3.20;99.90
44843;DHT22;31884;52.538;13.820;2023-11-22T06:10:13;-3.20;99.90
44843;DHT22;31884;52.538;13.820;2023-11-22T06:12:39;-3.30;99.90
44843;DHT22;31884;52.538;13.820;2023-11-22T06:15:05;-3.30;99.90
44843;DHT22;31884;52.538;13.820;2023-11-22T06:17:31;-3.40;99.90
44843;DHT22;31884;52.538;13.820;2023-11-22T06:19:56;-3.30;99.90
44843;DHT22;31884;52.538;13.820;2023-11-22T06:22:22;-3.40;99.90
44843;DHT22;31884;52.538;13.820;2023-11-22T06:24:47;-3.40;99.90
44843;DHT22;31884;52.538;13.820;2023-11-22T06:27:13;-3.40;99.90
44843;DHT22;31884;52.538;13.820;2023-11-22T06:29:40;-3.40;99.90
44843;DHT22;31884;52.538;13.820;2023-11-22T06:32:08;-3.30;99.90
44843;DHT22;31884;52.538;13.820;2023-11-22T06:34:34;-3.30;99.90
44843;DHT22;31884;52.538;13.820;2023-11-22T06:37:01;-3.30;99.90
44843;DHT22;31884;52.538;13.820;2023-11-22T06:39:27;-3.30;99.90
44843;DHT22;31884;52.538;13.820;2023-11-22T06:41:52;-3.30;99.90
44843;DHT22;31884;52.538;13.820;2023-11-22T06:44:18;-3.30;99.90
44843;DHT22;31884;52.538;13.820;2023-11-22T06:46:44;-3.40;99.90
44843;DHT22;31884;52.538;13.820;2023-11-22T06:49:10;-3.40;99.90
44843;DHT22;31884;52.538;13.820;2023-11-22T06:51:35;-3.40;99.90
44843;DHT22;31884;52.538;13.820;2023-11-22T06:54:01;-3.40;99.90
44843;DHT22;31884;52.538;13.820;2023-11-22T06:56:26;-3.40;99.90
44843;DHT22;31884;52.538;13.820;2023-11-22T06:58:53;-3.40;99.90
44843;DHT22;31884;52.538;13.820;2023-11-22T07:01:22;-3.40;99.90
44843;DHT22;31884;52.538;13.820;2023-11-22T07:03:48;-3.50;99.90
44843;DHT22;31884;52.538;13.820;2023-11-22T07:06:14;-3.50;99.90
44843;DHT22;31884;52.538;13.820;2023-11-22T07:08:40;-3.50;99.90
44843;DHT22;31884;52.538;13.820;2023-11-22T07:11:06;-3.50;99.90
44843;DHT22;31884;52.538;13.820;2023-11-22T07:13:35;-3.60;99.90
44843;DHT22;31884;52.538;13.820;2023-11-22T07:16:01;-3.50;99.90
44843;DHT22;31884;52.538;13.820;2023-11-22T07:18:29;-3.50;99.90
44843;DHT22;31884;52.538;13.820;2023-11-22T07:20:54;-3.40;99.90
44843;DHT22;31884;52.538;13.820;2023-11-22T07:23:20;-3.40;99.90
44843;DHT22;31884;52.538;13.820;2023-11-22T07:25:50;-3.40;99.90
44843;DHT22;31884;52.538;13.820;2023-11-22T07:28:16;-3.30;99.90
44843;DHT22;31884;52.538;13.820;2023-11-22T07:30:41;-3.20;99.90
44843;DHT22;31884;52.538;13.820;2023-11-22T07:33:07;-3.10;99.90
44843;DHT22;31884;52.538;13.820;2023-11-22T07:35:33;-3.00;99.90
44843;DHT22;31884;52.538;13.820;2023-11-22T07:37:59;-3.00;99.90
44843;DHT22;31884;52.538;13.820;2023-11-22T07:40:24;-2.90;99.90
44843;DHT22;31884;52.538;13.820;2023-11-22T07:42:50;-2.80;99.90
44843;DHT22;31884;52.538;13.820;2023-11-22T07:45:15;-2.70;99.90
44843;DHT22;31884;52.538;13.820;2023-11-22T07:47:42;-2.50;99.90
44843;DHT22;31884;52.538;13.820;2023-11-22T07:50:09;-2.40;99.90
44843;DHT22;31884;52.538;13.820;2023-11-22T07:52:36;-2.30;99.90
44843;DHT22;31884;52.538;13.820;2023-11-22T07:55:04;-2.10;99.90
44843;DHT22;31884;52.538;13.820;2023-11-22T07:57:31;-2.00;99.90
44843;DHT22;31884;52.538;13.820;2023-11-22T07:59:56;-1.90;99.90
44843;DHT22;31884;52.538;13.820;2023-11-22T08:02:22;-1.90;99.90
44843;DHT22;31884;52.538;13.820;2023-11-22T08:04:49;-1.70;99.90
44843;DHT22;31884;52.538;13.820;2023-11-22T08:07:16;-1.50;99.90
44843;DHT22;31884;52.538;13.820;2023-11-22T08:09:42;-1.30;99.90
44843;DHT22;31884;52.538;13.820;2023-11-22T08:12:08;-1.10;99.90
44843;DHT22;31884;52.538;13.820;2023-11-22T08:14:36;-0.90;99.90
44843;DHT22;31884;52.538;13.820;2023-11-22T08:17:02;-0.60;99.90
44843;DHT22;31884;52.538;13.820;2023-11-22T08:19:29;-0.40;99.90
44843;DHT22;31884;52.538;13.820;2023-11-22T08:21:54;-0.10;99.90
44843;DHT22;31884;52.538;13.820;2023-11-22T08:24:20;0.10;99.90
44843;DHT22;31884;52.538;13.820;2023-11-22T08:26:45;0.30;99.90
44843;DHT22;31884;52.538;13.820;2023-11-22T08:29:11;0.50;99.90
44843;DHT22;31884;52.538;13.820;2023-11-22T08:31:37;0.70;99.90
44843;DHT22;31884;52.538;13.820;2023-11-22T08:34:03;0.90;99.90
44843;DHT22;31884;52.538;13.820;2023-11-22T08:36:32;1.10;99.90
44843;DHT22;31884;52.538;13.820;2023-11-22T08:38:59;1.30;99.90
44843;DHT22;31884;52.538;13.820;2023-11-22T08:41:26;1.40;99.90
44843;DHT22;31884;52.538;13.820;2023-11-22T08:43:52;1.50;99.90
44843;DHT22;31884;52.538;13.820;2023-11-22T08:46:18;1.60;99.90
44843;DHT22;31884;52.538;13.820;2023-11-22T08:48:43;1.60;99.90
44843;DHT22;31884;52.538;13.820;2023-11-22T08:51:09;1.70;99.90
44843;DHT22;31884;52.538;13.820;2023-11-22T08:53:35;1.70;99.90
44843;DHT22;31884;52.538;13.820;2023-11-22T08:56:01;1.70;97.50
44843;DHT22;31884;52.538;13.820;2023-11-22T08:58:30;1.80;98.30
44843;DHT22;31884;52.538;13.820;2023-11-22T09:00:55;1.80;97.30
44843;DHT22;31884;52.538;13.820;2023-11-22T09:03:23;1.90;97.60
44843;DHT22;31884;52.538;13.820;2023-11-22T09:05:48;1.90;95.20
44843;DHT22;31884;52.538;13.820;2023-11-22T09:08:14;1.80;94.30
44843;DHT22;31884;52.538;13.820;2023-11-22T09:10:44;1.80;91.80
44843;DHT22;31884;52.538;13.820;2023-11-22T09:13:10;1.70;91.00
44843;DHT22;31884;52.538;13.820;2023-11-22T09:15:36;1.70;87.90
44843;DHT22;31884;52.538;13.820;2023-11-22T09:18:04;1.60;87.30
44843;DHT22;31884;52.538;13.820;2023-11-22T09:20:30;1.60;87.40
44843;DHT22;31884;52.538;13.820;2023-11-22T09:22:55;1.70;86.90
44843;DHT22;31884;52.538;13.820;2023-11-22T09:25:22;1.70;87.60
44843;DHT22;31884;52.538;13.820;2023-11-22T09:27:51;1.80;88.20
44843;DHT22;31884;52.538;13.820;2023-11-22T09:30:19;2.00;86.80
44843;DHT22;31884;52.538;13.820;2023-11-22T09:32:58;1.90;86.20
44843;DHT22;31884;52.538;13.820;2023-11-22T09:35:25;1.90;85.60
44843;DHT22;31884;52.538;13.820;2023-11-22T09:37:51;1.90;83.80
44843;DHT22;31884;52.538;13.820;2023-11-22T09:40:17;1.80;83.60
44843;DHT22;31884;52.538;13.820;2023-11-22T09:42:44;1.80;82.60
44843;DHT22;31884;52.538;13.820;2023-11-22T09:45:16;1.80;82.50
44843;DHT22;31884;52.538;13.820;2023-11-22T09:47:43;1.80;82.10
44843;DHT22;31884;52.538;13.820;2023-11-22T09:50:17;1.90;82.20
44843;DHT22;31884;52.538;13.820;2023-11-22T09:52:49;1.90;82.90
44843;DHT22;31884;52.538;13.820;2023-11-22T09:55:15;1.90;81.80
44843;DHT22;31884;52.538;13.820;2023-11-22T09:57:41;1.90;81.70
44843;DHT22;31884;52.538;13.820;2023-11-22T10:00:09;2.00;80.40
44843;DHT22;31884;52.538;13.820;2023-11-22T10:02:40;1.90;80.70
44843;DHT22;31884;52.538;13.820;2023-11-22T10:05:06;1.90;79.30
44843;DHT22;31884;52.538;13.820;2023-11-22T10:07:32;1.80;78.90
44843;DHT22;31884;52.538;13.820;2023-11-22T10:09:57;1.80;79.10
44843;DHT22;31884;52.538;13.820;2023-11-22T10:12:29;1.70;78.60
44843;DHT22;31884;52.538;13.820;2023-11-22T10:14:55;1.70;79.20
44843;DHT22;31884;52.538;13.820;2023-11-22T10:17:22;1.60;79.50
44843;DHT22;31884;52.538;13.820;2023-11-22T10:19:47;1.70;79.60
44843;DHT22;31884;52.538;13.820;2023-11-22T10:22:13;1.70;80.40
44843;DHT22;31884;52.538;13.820;2023-11-22T10:24:43;1.70;80.20
44843;DHT22;31884;52.538;13.820;2023-11-22T10:27:10;1.70;79.80
44843;DHT22;31884;52.538;13.820;2023-11-22T10:29:36;1.70;80.30
44843;DHT22;31884;52.538;13.820;2023-11-22T10:32:03;1.60;78.70
44843;DHT22;31884;52.538;13.820;2023-11-22T10:34:29;1.60;79.90
44843;DHT22;31884;52.538;13.820;2023-11-22T10:36:55;1.60;79.40
44843;DHT22;31884;52.538;13.820;2023-11-22T10:39:21;1.60;78.30
44843;DHT22;31884;52.538;13.820;2023-11-22T10:41:47;1.60;79.70
44843;DHT22;31884;52.538;13.820;2023-11-22T10:44:16;1.70;80.10
44843;DHT22;31884;52.538;13.820;2023-11-22T10:46:41;1.70;79.50
44843;DHT22;31884;52.538;13.820;2023-11-22T10:49:08;1.80;79.10
44843;DHT22;31884;52.538;13.820;2023-11-22T10:51:33;1.80;80.00
44843;DHT22;31884;52.538;13.820;2023-11-22T10:54:00;1.90;79.90
44843;DHT22;31884;52.538;13.820;2023-11-22T10:56:27;2.00;78.10
44843;DHT22;31884;52.538;13.820;2023-11-22T10:58:57;2.00;77.40
44843;DHT22;31884;52.538;13.820;2023-11-22T11:01:26;2.00;77.10
44843;DHT22;31884;52.538;13.820;2023-11-22T11:04:01;1.80;77.10
44843;DHT22;31884;52.538;13.820;2023-11-22T11:06:35;1.80;77.50
44843;DHT22;31884;52.538;13.820;2023-11-22T11:09:03;1.70;78.00
44843;DHT22;31884;52.538;13.820;2023-11-22T11:11:35;1.80;78.70
44843;DHT22;31884;52.538;13.820;2023-11-22T11:14:02;1.80;78.30
44843;DHT22;31884;52.538;13.820;2023-11-22T11:16:28;1.70;78.20
44843;DHT22;31884;52.538;13.820;2023-11-22T11:18:56;1.80;78.90
44843;DHT22;31884;52.538;13.820;2023-11-22T11:21:25;1.80;78.90
44843;DHT22;31884;52.538;13.820;2023-11-22T11:23:52;1.80;79.70
44843;DHT22;31884;52.538;13.820;2023-11-22T11:26:19;1.80;78.80
44843;DHT22;31884;52.538;13.820;2023-11-22T11:28:48;1.80;78.00
44843;DHT22;31884;52.538;13.820;2023-11-22T11:31:14;1.80;79.10
44843;DHT22;31884;52.538;13.820;2023-11-22T11:36:28;2.00;77.60
44843;DHT22;31884;52.538;13.820;2023-11-22T11:38:55;2.10;78.00
44843;DHT22;31884;52.538;13.820;2023-11-22T11:41:30;2.10;78.60
44843;DHT22;31884;52.538;13.820;2023-11-22T11:43:57;2.30;78.90
44843;DHT22;31884;52.538;13.820;2023-11-22T11:46:23;2.40;77.30
44843;DHT22;31884;52.538;13.820;2023-11-22T11:48:51;2.40;77.00
44843;DHT22;31884;52.538;13.820;2023-11-22T11:51:18;2.30;76.10
44843;DHT22;31884;52.538;13.820;2023-11-22T11:53:47;2.30;76.30
44843;DHT22;31884;52.538;13.820;2023-11-22T11:56:13;2.30;76.50
44843;DHT22;31884;52.538;13.820;2023-11-22T11:58:41;2.30;76.50
44843;DHT22;31884;52.538;13.820;2023-11-22T12:01:07;2.30;76.00
44843;DHT22;31884;52.538;13.820;2023-11-22T12:03:35;2.30;76.70
44843;DHT22;31884;52.538;13.820;2023-11-22T12:06:01;2.30;73.60
44843;DHT22;31884;52.538;13.820;2023-11-22T12:08:27;2.20;75.00
44843;DHT22;31884;52.538;13.820;2023-11-22T12:10:56;2.20;75.20
44843;DHT22;31884;52.538;13.820;2023-11-22T12:13:24;2.20;74.40
44843;DHT22;31884;52.538;13.820;2023-11-22T12:15:51;2.10;74.60
44843;DHT22;31884;52.538;13.820;2023-11-22T12:18:19;2.10;73.80
44843;DHT22;31884;52.538;13.820;2023-11-22T12:20:57;2.10;75.10
44843;DHT22;31884;52.538;13.820;2023-11-22T12:23:24;2.00;75.10
44843;DHT22;31884;52.538;13.820;2023-11-22T12:25:57;1.90;74.30
44843;DHT22;31884;52.538;13.820;2023-11-22T12:28:26;2.00;75.70
44843;DHT22;31884;52.538;13.820;2023-11-22T12:30:51;1.90;75.90
44843;DHT22;31884;52.538;13.820;2023-11-22T12:33:17;1.80;74.80
44843;DHT22;31884;52.538;13.820;2023-11-22T12:35:45;1.90;74.30
44843;DHT22;31884;52.538;13.820;2023-11-22T12:38:10;1.90;74.60
44843;DHT22;31884;52.538;13.820;2023-11-22T12:40:36;1.90;75.10
44843;DHT22;31884;52.538;13.820;2023-11-22T12:43:02;2.00;75.40
44843;DHT22;31884;52.538;13.820;2023-11-22T12:45:30;2.00;75.10
44843;DHT22;31884;52.538;13.820;2023-11-22T12:47:58;2.10;75.40
44843;DHT22;31884;52.538;13.820;2023-11-22T12:50:30;2.10;75.00
44843;DHT22;31884;52.538;13.820;2023-11-22T12:52:57;2.20;75.50
44843;DHT22;31884;52.538;13.820;2023-11-22T12:55:23;2.20;75.20
44843;DHT22;31884;52.538;13.820;2023-11-22T12:57:58;2.20;75.40
44843;DHT22;31884;52.538;13.820;2023-11-22T13:00:29;2.20;75.10
44843;DHT22;31884;52.538;13.820;2023-11-22T13:02:56;2.20;75.10
44843;DHT22;31884;52.538;13.820;2023-11-22T13:05:22;2.20;75.50
44843;DHT22;31884;52.538;13.820;2023-11-22T13:07:48;2.20;76.00
44843;DHT22;31884;52.538;13.820;2023-11-22T13:10:14;2.20;76.70
44843;DHT22;31884;52.538;13.820;2023-11-22T13:12:44;2.20;76.50
44843;DHT22;31884;52.538;13.820;2023-11-22T13:15:13;2.30;76.90
44843;DHT22;31884;52.538;13.820;2023-11-22T13:17:39;2.30;76.50
44843;DHT22;31884;52.538;13.820;2023-11-22T13:20:08;2.30;77.00
44843;DHT22;31884;52.538;13.820;2023-11-22T13:22:42;2.30;77.60
44843;DHT22;31884;52.538;13.820;2023-11-22T13:25:08;2.30;77.50
44843;DHT22;31884;52.538;13.820;2023-11-22T13:27:38;2.30;77.80
44843;DHT22;31884;52.538;13.820;2023-11-22T13:30:04;2.30;78.00
44843;DHT22;31884;52.538;13.820;2023-11-22T13:32:31;2.30;77.80
44843;DHT22;31884;52.538;13.820;2023-11-22T13:34:56;2.30;78.00
44843;DHT22;31884;52.538;13.820;2023-11-22T13:37:26;2.30;78.10
44843;DHT22;31884;52.538;13.820;2023-11-22T13:39:54;2.30;78.40
44843;DHT22;31884;52.538;13.820;2023-11-22T13:42:20;2.20;78.90
44843;DHT22;31884;52.538;13.820;2023-11-22T13:44:45;2.20;79.00
44843;DHT22;31884;52.538;13.820;2023-11-22T13:47:11;2.20;78.90
44843;DHT22;31884;52.538;13.820;2023-11-22T13:49:39;2.20;79.20
44843;DHT22;31884;52.538;13.820;2023-11-22T13:52:05;2.20;79.70
44843;DHT22;31884;52.538;13.820;2023-11-22T13:54:30;2.20;79.60
44843;DHT22;31884;52.538;13.820;2023-11-22T13:56:58;2.20;80.00
44843;DHT22;31884;52.538;13.820;2023-11-22T13:59:23;2.20;80.30
44843;DHT22;31884;52.538;13.820;2023-11-22T14:01:49;2.10;79.90
44843;DHT22;31884;52.538;13.820;2023-11-22T14:04:15;2.10;80.30
44843;DHT22;31884;52.538;13.820;2023-11-22T14:06:40;2.10;79.40
44843;DHT22;31884;52.538;13.820;2023-11-22T14:09:06;2.00;79.80
44843;DHT22;31884;52.538;13.820;2023-11-22T14:11:34;2.00;80.30
44843;DHT22;31884;52.538;13.820;2023-11-22T14:14:01;1.90;80.40
44843;DHT22;31884;52.538;13.820;2023-11-22T14:16:29;1.90;81.00
44843;DHT22;31884;52.538;13.820;2023-11-22T14:18:56;1.90;81.20
44843;DHT22;31884;52.538;13.820;2023-11-22T14:21:21;1.90;81.50
44843;DHT22;31884;52.538;13.820;2023-11-22T14:23:48;1.80;81.20
44843;DHT22;31884;52.538;13.820;2023-11-22T14:26:13;1.80;82.20
44843;DHT22;31884;52.538;13.820;2023-11-22T14:28:39;1.80;82.00
44843;DHT22;31884;52.538;13.820;2023-11-22T14:31:05;1.80;82.20
44843;DHT22;31884;52.538;13.820;2023-11-22T14:33:32;1.70;82.30
44843;DHT22;31884;52.538;13.820;2023-11-22T14:35:58;1.70;82.60
44843;DHT22;31884;52.538;13.820;2023-11-22T14:38:24;1.60;82.80
44843;DHT22;31884;52.538;13.820;2023-11-22T14:40:50;1.60;82.90
44843;DHT22;31884;52.538;13.820;2023-11-22T14:43:15;1.50;83.30
44843;DHT22;31884;52.538;13.820;2023-11-22T14:45:41;1.50;83.60
44843;DHT22;31884;52.538;13.820;2023-11-22T14:48:07;1.40;83.90
44843;DHT22;31884;52.538;13.820;2023-11-22T14:50:34;1.30;84.20
44843;DHT22;31884;52.538;13.820;2023-11-22T14:52:59;1.20;84.40
44843;DHT22;31884;52.538;13.820;2023-11-22T14:55:25;1.20;84.90
44843;DHT22;31884;52.538;13.820;2023-11-22T14:57:51;1.20;85.30
44843;DHT22;31884;52.538;13.820;2023-11-22T15:00:19;1.10;85.70
44843;DHT22;31884;52.538;13.820;2023-11-22T15:02:45;1.10;86.10
44843;DHT22;31884;52.538;13.820;2023-11-22T15:05:19;1.00;86.00
44843;DHT22;31884;52.538;13.820;2023-11-22T15:07:45;1.00;85.90
44843;DHT22;31884;52.538;13.820;2023-11-22T15:10:11;1.00;86.20
44843;DHT22;31884;52.538;13.820;2023-11-22T15:12:37;1.00;86.40
44843;DHT22;31884;52.538;13.820;2023-11-22T15:15:05;0.90;86.10
44843;DHT22;31884;52.538;13.820;2023-11-22T15:17:32;0.90;86.20
44843;DHT22;31884;52.538;13.820;2023-11-22T15:19:57;0.80;86.50